sensor_id;sensor_type;location;lat;lon;timestamp;pressure;altitude;pressure_sealevel;temperature;humidity
19763;BME280;10040;42.614;23.164;2022-07-23T00:00:21;92984.09;;;21.76;63.45
19763;BME280;10040;42.614;23.164;2022-07-23T00:02:48;92946.94;;;21.50;63.16
19763;BME280;10040;42.614;23.164;2022-07-23T00:05:17;92982.56;;;21.72;62.91
19763;BME280;10040;42.614;23.164;2022-07-23T00:07:44;92992.75;;;21.39;63.39
19763;BME280;10040;42.614;23.164;2022-07-23T00:10:12;92978.66;;;21.62;62.66
19763;BME280;10040;42.614;23.164;2022-07-23T00:12:39;92974.38;;;21.50;62.84
19763;BME280;10040;42.614;23.164;2022-07-23T00:15:08;92969.25;;;21.23;63.64
19763;BME280;10040;42.614;23.164;2022-07-23T00:17:36;92981.03;;;21.60;63.28
19763;BME280;10040;42.614;23.164;2022-07-23T00:20:04;92944.56;;;21.38;63.31
19763;BME280;10040;42.614;23.164;2022-07-23T00:22:33;92986.50;;;21.60;63.00
19763;BME280;10040;42.614;23.164;2022-07-23T00:25:01;93036.25;;;21.44;63.45
19763;BME280;10040;42.614;23.164;2022-07-23T00:27:28;92947.31;;;21.31;63.25
19763;BME280;10040;42.614;23.164;2022-07-23T00:29:56;92943.38;;;21.24;63.93
19763;BME280;10040;42.614;23.164;2022-07-23T00:32:23;92949.66;;;21.29;63.22
19763;BME280;10040;42.614;23.164;2022-07-23T00:34:50;92975.53;;;21.49;63.56
19763;BME280;10040;42.614;23.164;2022-07-23T00:37:18;92943.41;;;21.17;63.73
19763;BME280;10040;42.614;23.164;2022-07-23T00:39:47;92978.66;;;21.37;64.13
19763;BME280;10040;42.614;23.164;2022-07-23T00:42:14;92970.03;;;21.38;63.28
19763;BME280;10040;42.614;23.164;2022-07-23T00:44:42;92966.53;;;21.23;63.76
19763;BME280;10040;42.614;23.164;2022-07-23T00:47:10;92974.34;;;21.36;63.73
19763;BME280;10040;42.614;23.164;2022-07-23T00:49:37;92970.03;;;21.31;63.35
19763;BME280;10040;42.614;23.164;2022-07-23T00:52:05;92967.69;;;21.30;63.40
19763;BME280;10040;42.614;23.164;2022-07-23T00:54:33;92982.56;;;21.29;62.92
19763;BME280;10040;42.614;23.164;2022-07-23T00:57:02;92975.91;;;21.22;63.31
19763;BME280;10040;42.614;23.164;2022-07-23T00:59:30;92975.91;;;21.19;63.67
19763;BME280;10040;42.614;23.164;2022-07-23T01:01:57;92968.47;;;21.12;63.78
19763;BME280;10040;42.614;23.164;2022-07-23T01:04:25;92978.66;;;21.12;63.66
19763;BME280;10040;42.614;23.164;2022-07-23T01:06:52;92973.56;;;21.03;64.01
19763;BME280;10040;42.614;23.164;2022-07-23T01:09:20;92946.13;;;20.78;62.57
19763;BME280;10040;42.614;23.164;2022-07-23T01:11:47;92982.56;;;21.00;64.46
19763;BME280;10040;42.614;23.164;2022-07-23T01:14:18;93006.84;;;20.98;63.47
19763;BME280;10040;42.614;23.164;2022-07-23T01:16:47;92975.09;;;20.93;64.48
19763;BME280;10040;42.614;23.164;2022-07-23T01:19:16;92970.81;;;20.88;64.67
19763;BME280;10040;42.614;23.164;2022-07-23T01:21:47;92967.66;;;20.86;64.53
19763;BME280;10040;42.614;23.164;2022-07-23T01:24:17;92959.81;;;20.74;64.71
19763;BME280;10040;42.614;23.164;2022-07-23T01:26:53;92995.06;;;20.86;64.43
19763;BME280;10040;42.614;23.164;2022-07-23T01:29:21;92984.91;;;20.87;65.33
19763;BME280;10040;42.614;23.164;2022-07-23T01:31:49;92926.88;;;20.56;64.98
19763;BME280;10040;42.614;23.164;2022-07-23T01:34:17;92979.44;;;20.83;64.42
19763;BME280;10040;42.614;23.164;2022-07-23T01:36:44;92968.84;;;20.82;64.53
19763;BME280;10040;42.614;23.164;2022-07-23T01:39:14;92980.19;;;20.84;64.21
19763;BME280;10040;42.614;23.164;2022-07-23T01:41:43;92974.72;;;20.84;64.27
19763;BME280;10040;42.614;23.164;2022-07-23T01:44:11;92983.31;;;20.75;64.51
19763;BME280;10040;42.614;23.164;2022-07-23T01:46:40;92958.63;;;20.64;64.58
19763;BME280;10040;42.614;23.164;2022-07-23T01:49:08;92978.59;;;20.65;64.93
19763;BME280;10040;42.614;23.164;2022-07-23T01:51:55;92977.81;;;20.68;65.20
19763;BME280;10040;42.614;23.164;2022-07-23T01:54:40;92973.91;;;20.69;65.18
19763;BME280;10040;42.614;23.164;2022-07-23T01:57:10;92977.03;;;20.71;64.69
19763;BME280;10040;42.614;23.164;2022-07-23T01:59:37;92964.50;;;20.63;65.44
19763;BME280;10040;42.614;23.164;2022-07-23T02:02:06;92963.69;;;20.59;64.37
19763;BME280;10040;42.614;23.164;2022-07-23T02:04:34;92969.50;;;20.46;65.03
19763;BME280;10040;42.614;23.164;2022-07-23T02:07:03;92975.03;;;20.61;64.56
19763;BME280;10040;42.614;23.164;2022-07-23T02:09:31;92976.97;;;20.57;65.01
19763;BME280;10040;42.614;23.164;2022-07-23T02:11:59;92979.72;;;20.57;65.28
19763;BME280;10040;42.614;23.164;2022-07-23T02:14:27;92983.63;;;20.52;64.82
19763;BME280;10040;42.614;23.164;2022-07-23T02:16:55;92980.91;;;20.56;65.21
19763;BME280;10040;42.614;23.164;2022-07-23T02:19:23;93010.59;;;20.50;64.82
19763;BME280;10040;42.614;23.164;2022-07-23T02:21:50;92982.06;;;20.47;64.64
19763;BME280;10040;42.614;23.164;2022-07-23T02:24:19;92969.06;;;20.30;64.47
19763;BME280;10040;42.614;23.164;2022-07-23T02:26:46;92984.78;;;20.40;65.17
19763;BME280;10040;42.614;23.164;2022-07-23T02:29:14;92980.03;;;20.26;65.48
19763;BME280;10040;42.614;23.164;2022-07-23T02:31:43;92979.63;;;20.21;64.91
19763;BME280;10040;42.614;23.164;2022-07-23T02:34:12;92990.50;;;20.10;65.87
19763;BME280;10040;42.614;23.164;2022-07-23T02:36:39;92988.16;;;20.05;65.77
19763;BME280;10040;42.614;23.164;2022-07-23T02:39:07;92981.59;;;20.31;65.19
19763;BME280;10040;42.614;23.164;2022-07-23T02:41:35;92979.22;;;20.22;65.09
19763;BME280;10040;42.614;23.164;2022-07-23T02:44:03;93028.47;;;20.15;65.19
19763;BME280;10040;42.614;23.164;2022-07-23T02:46:31;92990.56;;;20.13;65.56
19763;BME280;10040;42.614;23.164;2022-07-23T02:49:02;92996.03;;;20.17;65.60
19763;BME280;10040;42.614;23.164;2022-07-23T02:51:31;92993.31;;;20.21;65.40
19763;BME280;10040;42.614;23.164;2022-07-23T02:54:03;92995.19;;;20.06;64.91
19763;BME280;10040;42.614;23.164;2022-07-23T02:56:31;93019.09;;;20.12;65.93
19763;BME280;10040;42.614;23.164;2022-07-23T02:58:58;93028.88;;;20.13;65.58
19763;BME280;10040;42.614;23.164;2022-07-23T03:01:26;92986.25;;;20.16;66.13
19763;BME280;10040;42.614;23.164;2022-07-23T03:03:54;92952.53;;;19.98;65.73
19763;BME280;10040;42.614;23.164;2022-07-23T03:06:24;92986.22;;;20.12;65.74
19763;BME280;10040;42.614;23.164;2022-07-23T03:08:51;92987.00;;;20.13;65.35
19763;BME280;10040;42.614;23.164;2022-07-23T03:11:19;92989.75;;;20.17;65.35
19763;BME280;10040;42.614;23.164;2022-07-23T03:13:48;93007.31;;;20.05;65.25
19763;BME280;10040;42.614;23.164;2022-07-23T03:16:16;92998.72;;;20.06;65.72
19763;BME280;10040;42.614;23.164;2022-07-23T03:18:43;92985.00;;;19.95;66.12
19763;BME280;10040;42.614;23.164;2022-07-23T03:21:10;93006.53;;;20.04;66.17
19763;BME280;10040;42.614;23.164;2022-07-23T03:23:40;92996.72;;;19.96;65.68
19763;BME280;10040;42.614;23.164;2022-07-23T03:26:07;92955.81;;;19.55;65.46
19763;BME280;10040;42.614;23.164;2022-07-23T03:28:35;92999.28;;;19.71;64.64
19763;BME280;10040;42.614;23.164;2022-07-23T03:31:05;93007.94;;;19.76;64.92
19763;BME280;10040;42.614;23.164;2022-07-23T03:33:32;93002.88;;;19.78;64.38
19763;BME280;10040;42.614;23.164;2022-07-23T03:36:00;93009.91;;;19.80;64.53
19763;BME280;10040;42.614;23.164;2022-07-23T03:38:31;93007.63;;;19.85;64.35
19763;BME280;10040;42.614;23.164;2022-07-23T03:40:59;93013.22;;;20.10;64.40
19763;BME280;10040;42.614;23.164;2022-07-23T03:43:27;93015.03;;;19.88;64.12
19763;BME280;10040;42.614;23.164;2022-07-23T03:45:54;93026.78;;;19.89;64.42
19763;BME280;10040;42.614;23.164;2022-07-23T03:48:22;93011.13;;;19.86;64.46
19763;BME280;10040;42.614;23.164;2022-07-23T03:50:49;93014.25;;;19.88;64.43
19763;BME280;10040;42.614;23.164;2022-07-23T03:53:17;93013.88;;;19.86;64.98
19763;BME280;10040;42.614;23.164;2022-07-23T03:55:46;93024.78;;;19.78;64.45
19763;BME280;10040;42.614;23.164;2022-07-23T03:58:15;93019.69;;;19.81;64.99
19763;BME280;10040;42.614;23.164;2022-07-23T04:00:44;93025.94;;;19.81;65.27
19763;BME280;10040;42.614;23.164;2022-07-23T04:03:14;93031.41;;;19.81;65.54
19763;BME280;10040;42.614;23.164;2022-07-23T04:05:45;93020.09;;;19.83;64.97
19763;BME280;10040;42.614;23.164;2022-07-23T04:08:14;93008.63;;;19.66;64.99
19763;BME280;10040;42.614;23.164;2022-07-23T04:10:47;93017.22;;;19.65;65.10
19763;BME280;10040;42.614;23.164;2022-07-23T04:13:16;93024.66;;;19.68;65.26
19763;BME280;10040;42.614;23.164;2022-07-23T04:15:44;93029.44;;;19.78;65.29
19763;BME280;10040;42.614;23.164;2022-07-23T04:18:11;93026.13;;;19.51;65.45
19763;BME280;10040;42.614;23.164;2022-07-23T04:20:47;93028.31;;;19.86;65.34
19763;BME280;10040;42.614;23.164;2022-07-23T04:23:16;92994.56;;;19.64;65.48
19763;BME280;10040;42.614;23.164;2022-07-23T04:25:44;93035.38;;;19.87;65.40
19763;BME280;10040;42.614;23.164;2022-07-23T04:28:12;93032.25;;;19.89;66.01
19763;BME280;10040;42.614;23.164;2022-07-23T04:30:59;93031.50;;;19.92;65.86
19763;BME280;10040;42.614;23.164;2022-07-23T04:33:27;93036.25;;;20.02;66.04
19763;BME280;10040;42.614;23.164;2022-07-23T04:35:57;93033.94;;;20.15;65.72
19763;BME280;10040;42.614;23.164;2022-07-23T04:38:25;93036.34;;;20.24;65.60
19763;BME280;10040;42.614;23.164;2022-07-23T04:40:56;93046.94;;;20.29;65.38
19763;BME280;10040;42.614;23.164;2022-07-23T04:43:23;93041.09;;;20.34;65.88
19763;BME280;10040;42.614;23.164;2022-07-23T04:45:51;93048.16;;;20.39;65.57
19763;BME280;10040;42.614;23.164;2022-07-23T04:48:20;93044.22;;;20.36;65.65
19763;BME280;10040;42.614;23.164;2022-07-23T04:50:53;93044.22;;;20.40;65.83
19763;BME280;10040;42.614;23.164;2022-07-23T04:53:26;93042.72;;;20.53;65.38
19763;BME280;10040;42.614;23.164;2022-07-23T04:55:57;93047.03;;;20.58;65.30
19763;BME280;10040;42.614;23.164;2022-07-23T04:58:25;93039.97;;;20.57;65.22
19763;BME280;10040;42.614;23.164;2022-07-23T05:00:52;93026.69;;;20.59;65.32
19763;BME280;10040;42.614;23.164;2022-07-23T05:03:21;93039.28;;;20.74;65.33
19763;BME280;10040;42.614;23.164;2022-07-23T05:05:49;93019.25;;;20.59;65.22
19763;BME280;10040;42.614;23.164;2022-07-23T05:08:18;93037.38;;;20.82;65.49
19763;BME280;10040;42.614;23.164;2022-07-23T05:10:50;93040.50;;;20.87;65.56
19763;BME280;10040;42.614;23.164;2022-07-23T05:13:19;93017.75;;;20.65;65.55
19763;BME280;10040;42.614;23.164;2022-07-23T05:15:50;93016.13;;;20.57;65.30
19763;BME280;10040;42.614;23.164;2022-07-23T05:18:18;93042.47;;;21.01;65.72
19763;BME280;10040;42.614;23.164;2022-07-23T05:20:47;93046.03;;;21.09;64.98
19763;BME280;10040;42.614;23.164;2022-07-23T05:23:18;93050.69;;;20.91;64.78
19763;BME280;10040;42.614;23.164;2022-07-23T05:25:47;93051.09;;;21.00;64.93
19763;BME280;10040;42.614;23.164;2022-07-23T05:28:16;93057.78;;;21.20;64.89
19763;BME280;10040;42.614;23.164;2022-07-23T05:30:44;93047.59;;;21.28;63.47
19763;BME280;10040;42.614;23.164;2022-07-23T05:33:14;93055.81;;;21.28;63.87
19763;BME280;10040;42.614;23.164;2022-07-23T05:35:41;93056.22;;;21.41;63.69
19763;BME280;10040;42.614;23.164;2022-07-23T05:38:23;93060.19;;;21.58;63.24
19763;BME280;10040;42.614;23.164;2022-07-23T05:40:51;93064.09;;;21.68;62.39
19763;BME280;10040;42.614;23.164;2022-07-23T05:43:19;93060.97;;;21.73;62.29
19763;BME280;10040;42.614;23.164;2022-07-23T05:45:47;93058.59;;;21.82;61.96
19763;BME280;10040;42.614;23.164;2022-07-23T05:48:15;93054.69;;;21.90;61.59
19763;BME280;10040;42.614;23.164;2022-07-23T05:50:54;93059.38;;;22.01;61.96
19763;BME280;10040;42.614;23.164;2022-07-23T05:53:33;93058.97;;;22.06;61.60
19763;BME280;10040;42.614;23.164;2022-07-23T05:56:05;93058.53;;;22.18;61.53
19763;BME280;10040;42.614;23.164;2022-07-23T05:58:33;93057.75;;;22.14;62.15
19763;BME280;10040;42.614;23.164;2022-07-23T06:01:01;93058.13;;;22.23;61.06
19763;BME280;10040;42.614;23.164;2022-07-23T06:03:34;93051.47;;;22.35;60.89
19763;BME280;10040;42.614;23.164;2022-07-23T06:06:01;93044.66;;;22.61;60.33
19763;BME280;10040;42.614;23.164;2022-07-23T06:08:29;93046.56;;;22.79;58.84
19763;BME280;10040;42.614;23.164;2022-07-23T06:10:58;93047.28;;;22.86;60.08
19763;BME280;10040;42.614;23.164;2022-07-23T06:13:26;93045.25;;;23.05;59.29
19763;BME280;10040;42.614;23.164;2022-07-23T06:15:54;93043.22;;;23.16;58.65
19763;BME280;10040;42.614;23.164;2022-07-23T06:18:21;93036.13;;;23.22;55.74
19763;BME280;10040;42.614;23.164;2022-07-23T06:20:49;93082.53;;;23.17;55.61
19763;BME280;10040;42.614;23.164;2022-07-23T06:23:16;93041.34;;;23.62;54.92
19763;BME280;10040;42.614;23.164;2022-07-23T06:25:43;93041.88;;;23.95;54.43
19763;BME280;10040;42.614;23.164;2022-07-23T06:28:12;93035.84;;;24.07;54.94
19763;BME280;10040;42.614;23.164;2022-07-23T06:30:42;93033.22;;;23.93;54.42
19763;BME280;10040;42.614;23.164;2022-07-23T06:33:09;93039.75;;;24.06;54.62
19763;BME280;10040;42.614;23.164;2022-07-23T06:35:38;93038.41;;;24.25;54.95
19763;BME280;10040;42.614;23.164;2022-07-23T06:38:07;93004.13;;;24.26;56.28
19763;BME280;10040;42.614;23.164;2022-07-23T06:40:34;93044.19;;;24.72;54.46
19763;BME280;10040;42.614;23.164;2022-07-23T06:43:02;93042.53;;;24.79;54.87
19763;BME280;10040;42.614;23.164;2022-07-23T06:45:31;93026.22;;;24.91;56.17
19763;BME280;10040;42.614;23.164;2022-07-23T06:47:59;93038.44;;;24.90;54.58
19763;BME280;10040;42.614;23.164;2022-07-23T06:50:28;93034.03;;;24.97;54.71
19763;BME280;10040;42.614;23.164;2022-07-23T06:53:14;93031.88;;;25.39;53.76
19763;BME280;10040;42.614;23.164;2022-07-23T06:55:42;93031.88;;;25.62;55.99
19763;BME280;10040;42.614;23.164;2022-07-23T06:58:11;93035.97;;;25.54;54.40
19763;BME280;10040;42.614;23.164;2022-07-23T07:00:41;93039.09;;;25.80;55.15
19763;BME280;10040;42.614;23.164;2022-07-23T07:03:08;93038.47;;;25.96;54.72
19763;BME280;10040;42.614;23.164;2022-07-23T07:05:36;93037.88;;;25.03;53.23
19763;BME280;10040;42.614;23.164;2022-07-23T07:08:05;93030.00;;;25.01;52.33
19763;BME280;10040;42.614;23.164;2022-07-23T07:10:33;93029.63;;;24.99;52.77
19763;BME280;10040;42.614;23.164;2022-07-23T07:13:00;93018.91;;;25.36;50.95
19763;BME280;10040;42.614;23.164;2022-07-23T07:15:28;93078.72;;;25.97;51.53
19763;BME280;10040;42.614;23.164;2022-07-23T07:17:56;93040.59;;;25.84;51.53
19763;BME280;10040;42.614;23.164;2022-07-23T07:20:24;93028.00;;;25.60;52.70
19763;BME280;10040;42.614;23.164;2022-07-23T07:22:51;93050.53;;;26.06;52.92
19763;BME280;10040;42.614;23.164;2022-07-23T07:25:19;93025.16;;;25.87;53.25
19763;BME280;10040;42.614;23.164;2022-07-23T07:27:46;93018.91;;;25.83;52.99
19763;BME280;10040;42.614;23.164;2022-07-23T07:30:14;93020.25;;;26.62;53.70
19763;BME280;10040;42.614;23.164;2022-07-23T07:32:41;93047.53;;;26.20;51.36
19763;BME280;10040;42.614;23.164;2022-07-23T07:35:10;93029.91;;;26.74;52.84
19763;BME280;10040;42.614;23.164;2022-07-23T07:37:38;93023.22;;;27.28;49.56
19763;BME280;10040;42.614;23.164;2022-07-23T07:40:06;93025.91;;;26.95;50.86
19763;BME280;10040;42.614;23.164;2022-07-23T07:42:34;93021.38;;;27.41;51.57
19763;BME280;10040;42.614;23.164;2022-07-23T07:45:01;93030.03;;;27.76;48.60
19763;BME280;10040;42.614;23.164;2022-07-23T07:47:29;93021.38;;;28.07;46.03
19763;BME280;10040;42.614;23.164;2022-07-23T07:49:56;93020.66;;;27.86;46.10
19763;BME280;10040;42.614;23.164;2022-07-23T07:52:25;93021.88;;;27.53;44.97
19763;BME280;10040;42.614;23.164;2022-07-23T07:54:52;93017.03;;;27.73;44.28
19763;BME280;10040;42.614;23.164;2022-07-23T07:57:20;93001.28;;;27.37;42.79
19763;BME280;10040;42.614;23.164;2022-07-23T07:59:47;93037.28;;;27.17;45.92
19763;BME280;10040;42.614;23.164;2022-07-23T08:02:14;93018.00;;;27.13;41.39
19763;BME280;10040;42.614;23.164;2022-07-23T08:04:42;93010.63;;;27.76;45.03
19763;BME280;10040;42.614;23.164;2022-07-23T08:07:10;93011.94;;;28.34;43.74
19763;BME280;10040;42.614;23.164;2022-07-23T08:09:39;93019.97;;;28.74;42.63
19763;BME280;10040;42.614;23.164;2022-07-23T08:12:07;93020.72;;;28.62;35.45
19763;BME280;10040;42.614;23.164;2022-07-23T08:14:35;93019.28;;;29.12;42.06
19763;BME280;10040;42.614;23.164;2022-07-23T08:17:02;93017.94;;;29.04;37.75
19763;BME280;10040;42.614;23.164;2022-07-23T08:19:29;92991.31;;;29.19;38.39
19763;BME280;10040;42.614;23.164;2022-07-23T08:21:57;93005.38;;;28.86;32.90
19763;BME280;10040;42.614;23.164;2022-07-23T08:24:24;93014.06;;;28.59;35.33
19763;BME280;10040;42.614;23.164;2022-07-23T08:26:53;92997.56;;;28.81;39.88
19763;BME280;10040;42.614;23.164;2022-07-23T08:29:20;93012.28;;;28.36;35.04
19763;BME280;10040;42.614;23.164;2022-07-23T08:31:48;93014.50;;;28.57;39.48
19763;BME280;10040;42.614;23.164;2022-07-23T08:34:15;93011.66;;;28.74;39.47
19763;BME280;10040;42.614;23.164;2022-07-23T08:36:43;93008.38;;;28.92;40.99
19763;BME280;10040;42.614;23.164;2022-07-23T08:39:10;93022.59;;;29.07;37.64
19763;BME280;10040;42.614;23.164;2022-07-23T08:41:39;93005.91;;;28.94;34.08
19763;BME280;10040;42.614;23.164;2022-07-23T08:44:09;93010.06;;;29.15;37.23
19763;BME280;10040;42.614;23.164;2022-07-23T08:46:38;93001.88;;;29.50;39.56
19763;BME280;10040;42.614;23.164;2022-07-23T08:49:06;93015.66;;;29.66;37.07
19763;BME280;10040;42.614;23.164;2022-07-23T08:51:34;93005.09;;;29.61;34.02
19763;BME280;10040;42.614;23.164;2022-07-23T08:54:02;93007.13;;;30.08;34.01
19763;BME280;10040;42.614;23.164;2022-07-23T08:56:30;93011.81;;;30.34;33.33
19763;BME280;10040;42.614;23.164;2022-07-23T08:58:57;93013.16;;;29.94;35.92
19763;BME280;10040;42.614;23.164;2022-07-23T09:01:26;93000.25;;;30.00;36.38
19763;BME280;10040;42.614;23.164;2022-07-23T09:03:54;93011.03;;;30.11;33.82
19763;BME280;10040;42.614;23.164;2022-07-23T09:06:21;93006.81;;;30.41;38.44
19763;BME280;10040;42.614;23.164;2022-07-23T09:08:49;93005.22;;;30.53;34.83
19763;BME280;10040;42.614;23.164;2022-07-23T09:11:17;93015.94;;;30.42;33.20
19763;BME280;10040;42.614;23.164;2022-07-23T09:13:47;93000.41;;;29.58;31.53
19763;BME280;10040;42.614;23.164;2022-07-23T09:16:16;93004.06;;;29.94;33.09
19763;BME280;10040;42.614;23.164;2022-07-23T09:18:47;93011.03;;;31.12;38.04
19763;BME280;10040;42.614;23.164;2022-07-23T09:21:21;93017.38;;;30.91;38.66
19763;BME280;10040;42.614;23.164;2022-07-23T09:23:52;93011.94;;;30.87;33.17
19763;BME280;10040;42.614;23.164;2022-07-23T09:29:09;93002.31;;;30.22;33.06
19763;BME280;10040;42.614;23.164;2022-07-23T09:31:43;93010.38;;;30.64;32.91
19763;BME280;10040;42.614;23.164;2022-07-23T09:34:16;93014.13;;;30.92;32.93
19763;BME280;10040;42.614;23.164;2022-07-23T09:36:44;93023.50;;;31.30;31.67
19763;BME280;10040;42.614;23.164;2022-07-23T09:39:13;92997.66;;;30.98;30.00
19763;BME280;10040;42.614;23.164;2022-07-23T09:41:42;92995.53;;;31.43;31.06
19763;BME280;10040;42.614;23.164;2022-07-23T09:44:13;92991.56;;;32.12;32.34
19763;BME280;10040;42.614;23.164;2022-07-23T09:46:40;92992.34;;;32.22;29.21
19763;BME280;10040;42.614;23.164;2022-07-23T09:49:19;92985.94;;;31.84;30.70
19763;BME280;10040;42.614;23.164;2022-07-23T09:51:49;92983.06;;;32.06;31.36
19763;BME280;10040;42.614;23.164;2022-07-23T09:54:23;92986.59;;;31.98;32.15
19763;BME280;10040;42.614;23.164;2022-07-23T09:56:53;92987.84;;;32.06;34.49
19763;BME280;10040;42.614;23.164;2022-07-23T09:59:23;92985.28;;;31.80;31.32
19763;BME280;10040;42.614;23.164;2022-07-23T10:01:53;92964.19;;;31.61;31.58
19763;BME280;10040;42.614;23.164;2022-07-23T10:04:24;92983.88;;;31.76;29.43
19763;BME280;10040;42.614;23.164;2022-07-23T10:06:57;92978.09;;;32.57;32.23
19763;BME280;10040;42.614;23.164;2022-07-23T10:09:57;92977.63;;;32.58;29.82
19763;BME280;10040;42.614;23.164;2022-07-23T10:12:55;92978.81;;;32.02;34.04
19763;BME280;10040;42.614;23.164;2022-07-23T10:15:41;92976.25;;;32.72;31.58
19763;BME280;10040;42.614;23.164;2022-07-23T10:18:10;92967.09;;;32.53;29.06
19763;BME280;10040;42.614;23.164;2022-07-23T10:20:40;92968.66;;;32.73;31.84
19763;BME280;10040;42.614;23.164;2022-07-23T10:23:14;92969.13;;;33.32;30.63
19763;BME280;10040;42.614;23.164;2022-07-23T10:25:48;92971.03;;;33.26;31.13
19763;BME280;10040;42.614;23.164;2022-07-23T10:28:39;92969.13;;;33.32;32.81
19763;BME280;10040;42.614;23.164;2022-07-23T10:31:13;92953.91;;;32.72;29.22
19763;BME280;10040;42.614;23.164;2022-07-23T10:33:53;92963.66;;;32.03;32.67
19763;BME280;10040;42.614;23.164;2022-07-23T10:36:30;92967.09;;;32.07;30.34
19763;BME280;10040;42.614;23.164;2022-07-23T10:39:05;92948.78;;;32.52;32.62
19763;BME280;10040;42.614;23.164;2022-07-23T10:41:34;92949.56;;;32.06;31.28
19763;BME280;10040;42.614;23.164;2022-07-23T10:44:09;92955.09;;;31.79;32.23
19763;BME280;10040;42.614;23.164;2022-07-23T10:46:53;92956.78;;;31.35;30.98
19763;BME280;10040;42.614;23.164;2022-07-23T10:49:27;92951.03;;;31.70;32.20
19763;BME280;10040;42.614;23.164;2022-07-23T10:52:24;92953.38;;;32.92;32.11
19763;BME280;10040;42.614;23.164;2022-07-23T10:54:54;92939.84;;;33.52;32.74
19763;BME280;10040;42.614;23.164;2022-07-23T10:57:23;92942.63;;;33.85;30.39
19763;BME280;10040;42.614;23.164;2022-07-23T11:00:19;92942.09;;;33.96;33.75
19763;BME280;10040;42.614;23.164;2022-07-23T11:02:48;92929.00;;;33.45;32.88
19763;BME280;10040;42.614;23.164;2022-07-23T11:05:17;92939.59;;;33.98;31.97
19763;BME280;10040;42.614;23.164;2022-07-23T11:10:56;92929.56;;;34.84;29.81
19763;BME280;10040;42.614;23.164;2022-07-23T11:13:44;92922.84;;;33.65;30.48
19763;BME280;10040;42.614;23.164;2022-07-23T11:16:25;92933.28;;;34.13;29.61
19763;BME280;10040;42.614;23.164;2022-07-23T11:19:13;92932.59;;;34.57;29.93
19763;BME280;10040;42.614;23.164;2022-07-23T11:21:48;92919.28;;;34.52;26.77
19763;BME280;10040;42.614;23.164;2022-07-23T11:24:21;92921.91;;;34.16;27.08
19763;BME280;10040;42.614;23.164;2022-07-23T11:26:54;92922.47;;;34.44;28.66
19763;BME280;10040;42.614;23.164;2022-07-23T11:29:43;92925.47;;;34.71;27.04
19763;BME280;10040;42.614;23.164;2022-07-23T11:32:32;92926.97;;;34.96;29.17
19763;BME280;10040;42.614;23.164;2022-07-23T11:35:01;92913.47;;;34.40;29.77
19763;BME280;10040;42.614;23.164;2022-07-23T11:37:34;92910.38;;;34.14;28.33
19763;BME280;10040;42.614;23.164;2022-07-23T11:40:05;92934.78;;;33.74;26.60
19763;BME280;10040;42.614;23.164;2022-07-23T11:42:36;92906.00;;;34.22;27.91
19763;BME280;10040;42.614;23.164;2022-07-23T11:45:06;92885.31;;;34.20;30.50
19763;BME280;10040;42.614;23.164;2022-07-23T11:47:34;92900.72;;;34.00;26.71
19763;BME280;10040;42.614;23.164;2022-07-23T11:50:04;92903.22;;;34.37;27.47
19763;BME280;10040;42.614;23.164;2022-07-23T11:52:33;92899.13;;;34.77;26.07
19763;BME280;10040;42.614;23.164;2022-07-23T11:55:02;92893.69;;;35.18;25.12
19763;BME280;10040;42.614;23.164;2022-07-23T11:57:32;92895.69;;;35.48;25.04
19763;BME280;10040;42.614;23.164;2022-07-23T12:00:05;92897.00;;;34.87;24.14
19763;BME280;10040;42.614;23.164;2022-07-23T12:02:41;92900.75;;;35.64;25.09
19763;BME280;10040;42.614;23.164;2022-07-23T12:05:11;92899.72;;;35.82;24.34
19763;BME280;10040;42.614;23.164;2022-07-23T12:07:40;92894.81;;;35.42;24.32
19763;BME280;10040;42.614;23.164;2022-07-23T12:10:12;92894.66;;;35.30;24.89
19763;BME280;10040;42.614;23.164;2022-07-23T12:12:41;92891.41;;;35.52;25.79
19763;BME280;10040;42.614;23.164;2022-07-23T12:15:11;92885.41;;;35.80;22.60
19763;BME280;10040;42.614;23.164;2022-07-23T12:17:40;92905.81;;;35.81;27.25
19763;BME280;10040;42.614;23.164;2022-07-23T12:20:12;92892.25;;;35.58;23.15
19763;BME280;10040;42.614;23.164;2022-07-23T12:22:41;92890.72;;;35.57;24.77
19763;BME280;10040;42.614;23.164;2022-07-23T12:25:11;92885.69;;;35.11;25.02
19763;BME280;10040;42.614;23.164;2022-07-23T12:27:39;92879.78;;;35.60;24.65
19763;BME280;10040;42.614;23.164;2022-07-23T12:30:22;92894.94;;;35.68;24.80
19763;BME280;10040;42.614;23.164;2022-07-23T12:32:52;92877.69;;;35.75;23.30
19763;BME280;10040;42.614;23.164;2022-07-23T12:35:20;92869.06;;;35.79;25.97
19763;BME280;10040;42.614;23.164;2022-07-23T12:37:50;92867.16;;;36.32;23.06
19763;BME280;10040;42.614;23.164;2022-07-23T12:40:24;92864.00;;;36.24;26.28
19763;BME280;10040;42.614;23.164;2022-07-23T12:42:55;92858.00;;;35.90;24.68
19763;BME280;10040;42.614;23.164;2022-07-23T12:45:25;92861.81;;;36.34;24.46
19763;BME280;10040;42.614;23.164;2022-07-23T12:47:56;92908.75;;;36.27;22.17
19763;BME280;10040;42.614;23.164;2022-07-23T12:50:37;92851.13;;;36.17;24.64
19763;BME280;10040;42.614;23.164;2022-07-23T12:53:08;92853.13;;;36.32;25.94
19763;BME280;10040;42.614;23.164;2022-07-23T12:55:36;92857.78;;;36.40;23.50
19763;BME280;10040;42.614;23.164;2022-07-23T12:58:13;92852.78;;;36.50;23.54
19763;BME280;10040;42.614;23.164;2022-07-23T13:01:01;92845.19;;;36.30;21.04
19763;BME280;10040;42.614;23.164;2022-07-23T13:03:36;92841.22;;;35.75;25.72
19763;BME280;10040;42.614;23.164;2022-07-23T13:06:05;92846.66;;;36.25;22.49
19763;BME280;10040;42.614;23.164;2022-07-23T13:08:35;92850.25;;;36.52;23.20
19763;BME280;10040;42.614;23.164;2022-07-23T13:11:05;92849.00;;;36.53;22.52